KGAI

Montgomery County Airpark

Gaithersburg, Maryland, USA
METAR KGAI 231356Z AUTO 12007KT 10SM BKN007 OVC017 04/03 A3056 RMK AO2 RAE29 CIG 004V009 SLP382 P0001 T00390033
Observed Flight Rules
Feb-23 @ 13:56 UTC (34 minutes ago) Instrument Flight Rules
Wind Visibility Clouds
120° at 7 knots 10 miles
  • Broken at 700' AGL
  • Overcast at 1,700' AGL
Temperatures Readings Precipitation
Current 4°C / 39°F
Dewpoint 3°C / 37°F
Humidity 93%
Altimeter 30.56" Hg
Pressure 1038.2 hPa
Elevation 165
Current Rain 0.01
METAR KGAI 231356Z AUTO 12007KT 10SM BKN007 OVC017 04/03 A3056 RMK AO2 RAE29 CIG 004V009 SLP382 P0001 T00390033
Observed Flight Rules
Feb-23 @ 13:56 UTC
(34 minutes ago)
IFR
Wind Visibility
120° at 7 knots 10 miles
Clouds
  • Broken at 700' AGL
  • Overcast at 1,700' AGL
Temperature Dewpoint
4°C / 39°F 3°C / 37°F
Humidity Altimeter Pressure
93% 30.56" Hg 1038.2 hPa
Current Rain
0.01